createdAt,value
2022-12-14T00:01:49.119Z,65.37
2022-12-14T00:04:18.327Z,64.95
2022-12-14T00:06:55.041Z,65.33
2022-12-14T00:09:23.365Z,65.26
2022-12-14T00:11:53.062Z,65.07
2022-12-14T00:14:21.101Z,64.92
2022-12-14T00:16:49.078Z,65.05
2022-12-14T00:19:17.209Z,64.75
2022-12-14T00:21:46.065Z,65.16
2022-12-14T00:24:14.132Z,64.96
2022-12-14T00:26:42.050Z,64.83
2022-12-14T00:29:11.862Z,65.25
2022-12-14T00:31:40.050Z,65.35
2022-12-14T00:34:08.169Z,65.43
2022-12-14T00:36:37.840Z,65.17
2022-12-14T00:39:06.503Z,65.34
2022-12-14T00:41:34.780Z,65.40
2022-12-14T00:44:02.821Z,65.39
2022-12-14T00:46:32.398Z,65.21
2022-12-14T00:49:00.445Z,65.29
2022-12-14T00:51:28.849Z,65.53
2022-12-14T00:53:56.793Z,65.26
2022-12-14T00:56:24.663Z,65.85
2022-12-14T00:58:52.983Z,65.86
2022-12-14T01:01:21.804Z,65.74
2022-12-14T01:04:11.766Z,66.05
2022-12-14T01:06:39.701Z,65.76
2022-12-14T01:09:07.974Z,65.77
2022-12-14T01:11:36.085Z,65.42
2022-12-14T01:14:04.056Z,65.89
2022-12-14T01:16:32.168Z,65.22
2022-12-14T01:19:02.637Z,64.97
2022-12-14T01:21:30.691Z,64.89
2022-12-14T01:24:00.119Z,65.15
2022-12-14T01:26:29.839Z,64.75
2022-12-14T01:29:00.044Z,64.61
2022-12-14T01:31:30.521Z,64.35
2022-12-14T01:33:58.658Z,64.91
2022-12-14T01:36:30.466Z,64.39
2022-12-14T01:39:00.078Z,64.38
2022-12-14T01:41:30.590Z,64.24
2022-12-14T01:44:00.283Z,64.31
2022-12-14T01:46:32.461Z,64.59
2022-12-14T01:49:10.890Z,64.68
2022-12-14T01:51:42.650Z,64.67
2022-12-14T01:54:14.705Z,64.58
2022-12-14T01:56:46.063Z,64.61
2022-12-14T01:59:17.766Z,64.24
2022-12-14T02:01:46.674Z,64.03
2022-12-14T02:04:18.802Z,63.73
2022-12-14T02:06:50.254Z,63.83
2022-12-14T02:09:21.848Z,63.57
2022-12-14T02:11:59.307Z,64.00
2022-12-14T02:14:27.929Z,63.88
2022-12-14T02:16:58.505Z,63.86
2022-12-14T02:19:26.634Z,64.22
2022-12-14T02:22:19.559Z,63.52
2022-12-14T02:25:07.907Z,63.62
2022-12-14T02:27:56.082Z,63.95
2022-12-14T02:30:27.588Z,63.73
2022-12-14T02:33:17.396Z,64.11
2022-12-14T02:35:49.821Z,63.94
2022-12-14T02:38:29.616Z,63.76
2022-12-14T02:41:03.971Z,63.84
2022-12-14T02:43:38.700Z,63.52
2022-12-14T02:46:18.173Z,63.42
2022-12-14T02:48:53.000Z,63.44
2022-12-14T02:51:25.628Z,63.30
2022-12-14T02:54:01.727Z,63.47
2022-12-14T02:56:35.919Z,63.27
2022-12-14T02:59:07.891Z,63.18
2022-12-14T03:01:41.869Z,63.08
2022-12-14T03:04:15.353Z,62.49
2022-12-14T03:06:55.108Z,62.54
2022-12-14T03:09:23.379Z,62.51
2022-12-14T03:11:56.499Z,62.46
2022-12-14T03:14:28.560Z,62.46
2022-12-14T03:17:03.645Z,62.26
2022-12-14T03:19:36.602Z,62.35
2022-12-14T03:22:10.111Z,62.27
2022-12-14T03:24:42.406Z,62.43
2022-12-14T03:27:16.097Z,62.33
2022-12-14T03:29:48.987Z,61.61
2022-12-14T03:32:23.582Z,62.02
2022-12-14T03:34:57.160Z,61.91
2022-12-14T03:37:34.275Z,61.89
2022-12-14T03:40:02.372Z,61.79
2022-12-14T03:42:36.904Z,61.94
2022-12-14T03:45:19.053Z,61.58
2022-12-14T03:48:10.851Z,61.98
2022-12-14T03:50:46.947Z,61.79
2022-12-14T03:53:20.989Z,61.42
2022-12-14T03:55:59.957Z,61.52
2022-12-14T03:58:40.187Z,61.38
2022-12-14T04:01:15.097Z,61.45
2022-12-14T04:03:54.190Z,61.32
2022-12-14T04:06:32.004Z,60.73
2022-12-14T04:09:09.365Z,61.57
2022-12-14T04:12:14.947Z,61.70
2022-12-14T04:15:08.193Z,61.66
2022-12-14T04:17:56.977Z,61.67
2022-12-14T04:20:29.369Z,61.89
2022-12-14T04:23:01.108Z,61.93
2022-12-14T04:25:50.715Z,61.92
2022-12-14T04:28:42.525Z,61.54
2022-12-14T04:31:13.680Z,61.84
2022-12-14T04:33:49.695Z,61.77
2022-12-14T04:36:26.442Z,61.57
2022-12-14T04:38:58.781Z,61.89
2022-12-14T04:41:32.885Z,62.19
2022-12-14T04:44:04.501Z,62.68
2022-12-14T04:46:40.560Z,62.39
2022-12-14T04:49:17.598Z,62.44
2022-12-14T04:51:52.966Z,62.51
2022-12-14T04:54:27.999Z,62.48
2022-12-14T04:57:02.287Z,62.69
2022-12-14T04:59:33.403Z,62.72
2022-12-14T05:02:11.318Z,62.94
2022-12-14T05:04:56.064Z,62.86
2022-12-14T05:07:37.837Z,62.90
2022-12-14T05:10:11.020Z,62.62
2022-12-14T05:13:41.245Z,62.71
2022-12-14T05:38:22.673Z,63.29
2022-12-14T05:45:25.403Z,63.32
2022-12-14T05:52:01.824Z,63.45
2022-12-14T05:55:16.546Z,63.38
2022-12-14T05:58:08.513Z,63.31
2022-12-14T06:01:33.746Z,63.54
2022-12-14T08:38:17.761Z,64.72
2022-12-14T08:40:47.923Z,64.42
2022-12-14T08:43:21.725Z,63.94
2022-12-14T08:45:55.302Z,64.21
2022-12-14T08:48:23.596Z,64.48
2022-12-14T08:50:51.548Z,64.42
2022-12-14T08:53:21.147Z,64.33
2022-12-14T08:55:48.908Z,64.49
2022-12-14T08:58:16.801Z,64.81
2022-12-14T09:00:44.680Z,64.73
2022-12-14T09:03:12.840Z,64.45
2022-12-14T09:05:40.707Z,64.30
2022-12-14T09:08:10.767Z,64.42
2022-12-14T09:10:39.930Z,64.04
2022-12-14T09:13:07.884Z,63.99
2022-12-14T09:15:35.660Z,64.35
2022-12-14T09:18:03.624Z,63.96
2022-12-14T09:20:31.510Z,64.09
2022-12-14T09:23:01.567Z,63.75
2022-12-14T09:25:29.410Z,63.41
2022-12-14T09:27:58.735Z,63.64
2022-12-14T09:30:27.163Z,63.68
2022-12-14T09:32:55.100Z,64.08
2022-12-14T09:35:23.181Z,64.61
2022-12-14T09:37:51.121Z,64.58
2022-12-14T09:40:19.152Z,64.65
2022-12-14T09:42:57.174Z,64.76
2022-12-14T09:45:31.113Z,64.99
2022-12-14T09:48:05.095Z,65.11
2022-12-14T09:50:33.556Z,65.11
2022-12-14T09:53:04.117Z,65.25
2022-12-14T09:55:36.249Z,65.44
2022-12-14T09:58:13.089Z,65.74
2022-12-14T10:00:53.138Z,65.67
2022-12-14T10:03:46.822Z,65.71
2022-12-14T10:06:34.616Z,65.52
2022-12-14T10:09:14.303Z,65.75
2022-12-14T10:11:52.339Z,65.63
2022-12-14T10:14:27.999Z,65.51
2022-12-14T10:17:06.113Z,65.39
2022-12-14T10:19:40.711Z,65.87
2022-12-14T10:22:14.451Z,65.57
2022-12-14T10:24:46.216Z,65.66
2022-12-14T10:27:22.726Z,65.80
2022-12-14T10:29:56.804Z,65.71
2022-12-14T10:32:33.422Z,65.72
2022-12-14T10:35:12.448Z,65.29
2022-12-14T10:37:44.966Z,65.49
2022-12-14T10:40:32.957Z,65.81
2022-12-14T10:43:29.898Z,65.59
2022-12-14T10:46:11.876Z,65.72
2022-12-14T10:48:48.906Z,65.59
2022-12-14T10:51:21.379Z,65.59
2022-12-14T10:53:51.885Z,65.69
2022-12-14T10:56:23.241Z,65.76
2022-12-14T10:59:25.430Z,65.82
2022-12-14T11:01:58.580Z,65.57
2022-12-14T11:04:34.715Z,65.69
2022-12-14T11:07:05.467Z,66.04
2022-12-14T11:09:33.787Z,66.03
2022-12-14T11:12:06.372Z,65.88
2022-12-14T11:14:36.998Z,65.68
2022-12-14T11:17:05.589Z,65.42
2022-12-14T11:19:37.528Z,65.55
2022-12-14T11:22:20.129Z,65.75
2022-12-14T11:24:51.292Z,65.58
2022-12-14T11:27:22.499Z,65.19
2022-12-14T11:29:52.413Z,65.45
2022-12-14T11:32:23.999Z,65.48
2022-12-14T11:35:00.913Z,65.76
2022-12-14T11:37:30.811Z,65.67
2022-12-14T11:40:01.256Z,65.15
2022-12-14T11:42:29.601Z,65.22
2022-12-14T11:45:28.792Z,65.48
2022-12-14T11:48:17.181Z,65.62
2022-12-14T11:50:48.345Z,65.27
2022-12-14T11:53:17.994Z,65.16
2022-12-14T11:55:50.538Z,65.32
2022-12-14T11:58:21.890Z,65.82
2022-12-14T12:00:52.545Z,65.49
2022-12-14T12:03:25.700Z,65.35
2022-12-14T12:05:55.832Z,65.98
2022-12-14T12:08:27.073Z,65.57
2022-12-14T12:11:01.922Z,65.91
2022-12-14T12:13:32.533Z,65.65
2022-12-14T12:16:02.582Z,65.96
2022-12-14T12:18:38.406Z,65.77
2022-12-14T12:21:15.947Z,65.80
2022-12-14T12:23:48.422Z,65.70
2022-12-14T12:26:20.598Z,65.50
2022-12-14T12:28:55.420Z,65.31
2022-12-14T12:31:29.176Z,65.49
2022-12-14T12:34:00.541Z,65.21
2022-12-14T12:36:32.431Z,65.11
2022-12-14T12:39:06.719Z,65.00
2022-12-14T12:41:44.636Z,64.89
2022-12-14T12:44:25.530Z,64.51
2022-12-14T12:49:54.027Z,63.27
2022-12-14T12:52:28.685Z,62.56
2022-12-14T12:55:02.345Z,63.05
2022-12-14T12:57:37.562Z,62.49
2022-12-14T13:00:07.727Z,61.83
2022-12-14T13:02:37.885Z,61.07
2022-12-14T13:05:44.595Z,60.43
2022-12-14T13:08:06.826Z,60.72
2022-12-14T13:10:42.077Z,60.68
2022-12-14T13:13:23.259Z,59.92
2022-12-14T13:15:53.918Z,59.39
2022-12-14T13:18:49.387Z,58.35
2022-12-14T13:21:34.835Z,58.34
2022-12-14T13:24:06.402Z,58.17
2022-12-14T13:26:58.067Z,58.85
2022-12-14T13:29:45.146Z,58.21
2022-12-14T13:32:35.428Z,58.21
2022-12-14T13:35:21.112Z,57.52
2022-12-14T13:38:15.674Z,57.08
2022-12-14T13:41:14.382Z,56.53
2022-12-14T13:44:05.731Z,57.44
2022-12-14T13:46:33.810Z,57.69
2022-12-14T13:49:05.392Z,58.05
2022-12-14T13:51:37.532Z,57.70
2022-12-14T13:54:08.147Z,57.48
2022-12-14T13:56:40.292Z,57.16
2022-12-14T13:59:26.687Z,57.75
2022-12-14T14:01:58.374Z,57.20
2022-12-14T14:04:29.612Z,57.54
2022-12-14T14:07:20.937Z,57.84
2022-12-14T14:10:04.696Z,58.14
2022-12-14T14:12:43.972Z,58.36
2022-12-14T14:18:49.661Z,57.69
2022-12-14T14:22:21.064Z,57.53
2022-12-14T14:24:30.287Z,57.60
2022-12-14T14:27:10.555Z,58.06
2022-12-14T14:29:45.885Z,57.24
2022-12-14T14:32:33.446Z,58.05
2022-12-14T14:35:02.998Z,57.91
2022-12-14T14:37:33.694Z,57.36
2022-12-14T14:40:38.278Z,57.07
2022-12-14T14:43:29.722Z,57.63
2022-12-14T14:46:03.452Z,57.03
2022-12-14T14:48:35.437Z,57.40
2022-12-14T14:51:17.463Z,57.64
2022-12-14T14:53:45.762Z,57.50
2022-12-14T14:56:40.058Z,57.48
2022-12-14T14:59:33.904Z,57.88
2022-12-14T15:02:09.586Z,57.72
2022-12-14T15:04:45.753Z,57.97
2022-12-14T15:07:18.670Z,58.06
2022-12-14T15:09:51.999Z,58.45
2022-12-14T15:12:30.106Z,58.71
2022-12-14T15:15:02.303Z,59.00
2022-12-14T15:17:31.807Z,59.06
2022-12-14T15:20:02.681Z,59.59
2022-12-14T15:22:33.334Z,59.48
2022-12-14T15:25:15.340Z,59.55
2022-12-14T15:27:43.264Z,59.57
2022-12-14T15:30:21.063Z,59.70
2022-12-14T15:32:54.534Z,59.60
2022-12-14T15:35:26.211Z,59.62
2022-12-14T15:38:00.217Z,59.94
2022-12-14T15:40:31.021Z,59.61
2022-12-14T15:43:01.322Z,59.83
2022-12-14T15:45:31.566Z,60.35
2022-12-14T15:48:15.212Z,59.94
2022-12-14T15:50:46.756Z,60.31
2022-12-14T15:53:19.651Z,60.80
2022-12-14T15:56:00.300Z,60.77
2022-12-14T15:58:33.627Z,60.63
2022-12-14T16:01:10.524Z,60.54
2022-12-14T16:03:43.897Z,61.10
2022-12-14T16:06:13.636Z,61.40
2022-12-14T16:08:49.561Z,61.29
2022-12-14T16:11:24.449Z,61.80
2022-12-14T16:13:52.441Z,61.51
2022-12-14T16:16:21.338Z,61.66
2022-12-14T16:18:52.843Z,61.46
2022-12-14T16:21:28.896Z,61.79
2022-12-14T16:24:00.490Z,61.84
2022-12-14T16:26:36.651Z,61.87
2022-12-14T16:29:10.662Z,62.01
2022-12-14T16:31:39.341Z,62.41
2022-12-14T16:34:15.186Z,62.44
2022-12-14T16:37:08.140Z,62.64
2022-12-14T16:39:39.186Z,62.80
2022-12-14T16:42:18.340Z,62.92
2022-12-14T16:44:47.314Z,63.21
2022-12-14T16:47:50.078Z,63.54
2022-12-14T16:50:55.677Z,63.58
2022-12-14T16:53:18.733Z,63.48
2022-12-14T16:56:02.493Z,63.49
2022-12-14T16:58:30.739Z,63.34
2022-12-14T17:01:02.691Z,63.76
2022-12-14T17:03:32.133Z,63.75
2022-12-14T17:06:04.364Z,63.75
2022-12-14T17:08:34.257Z,63.66
2022-12-14T17:11:03.351Z,63.85
2022-12-14T17:13:31.690Z,64.06
2022-12-14T17:16:01.570Z,64.01
2022-12-14T17:18:32.912Z,64.20
2022-12-14T17:21:06.351Z,64.25
2022-12-14T17:23:40.240Z,64.25
2022-12-14T17:26:24.351Z,64.60
2022-12-14T17:28:52.384Z,64.56
2022-12-14T17:31:23.222Z,64.63
2022-12-14T17:33:52.998Z,64.84
2022-12-14T17:36:24.535Z,64.60
2022-12-14T17:38:52.511Z,64.81
2022-12-14T17:41:26.559Z,64.83
2022-12-14T17:43:57.590Z,64.95
2022-12-14T17:46:26.606Z,64.89
2022-12-14T17:48:54.951Z,64.92
2022-12-14T17:51:29.159Z,65.29
2022-12-14T17:54:15.863Z,65.45
2022-12-14T17:56:56.190Z,65.80
2022-12-14T17:59:47.259Z,65.57
2022-12-14T18:02:32.736Z,65.89
2022-12-14T18:05:08.590Z,65.68
2022-12-14T18:07:42.604Z,65.85
2022-12-14T18:10:14.189Z,65.92
2022-12-14T18:12:42.681Z,66.05
2022-12-14T18:15:17.632Z,66.09
2022-12-14T18:17:49.300Z,66.31
2022-12-14T18:20:17.822Z,66.01
2022-12-14T18:22:49.620Z,66.37
2022-12-14T18:25:30.148Z,66.26
2022-12-14T18:27:58.702Z,66.22
2022-12-14T18:30:27.230Z,66.38
2022-12-14T18:32:55.978Z,66.62
2022-12-14T18:35:27.202Z,66.60
2022-12-14T18:37:56.490Z,66.79
2022-12-14T18:40:26.927Z,67.05
2022-12-14T18:42:55.583Z,66.84
2022-12-14T18:45:25.399Z,66.84
2022-12-14T18:47:54.248Z,66.46
2022-12-14T18:50:23.509Z,66.96
2022-12-14T18:52:51.763Z,67.32
2022-12-14T18:55:23.355Z,66.86
2022-12-14T18:57:53.574Z,67.11
2022-12-14T19:00:24.084Z,67.46
2022-12-14T19:02:52.820Z,67.01
2022-12-14T19:05:26.122Z,67.15
2022-12-14T19:07:54.489Z,67.01
2022-12-14T19:10:26.315Z,67.32
2022-12-14T19:12:54.249Z,67.12
2022-12-14T19:15:25.017Z,67.29
2022-12-14T19:17:52.993Z,67.26
2022-12-14T19:20:21.790Z,67.23
2022-12-14T19:22:50.032Z,67.43
2022-12-14T19:25:19.503Z,67.21
2022-12-14T19:30:37.676Z,67.41
2022-12-14T19:33:05.817Z,67.16
2022-12-14T19:35:33.602Z,67.53
2022-12-14T19:38:01.657Z,67.26
2022-12-14T19:40:29.508Z,67.35
2022-12-14T19:43:00.018Z,67.41
2022-12-14T19:45:28.120Z,67.24
2022-12-14T19:47:56.138Z,67.11
2022-12-14T19:50:24.130Z,67.28
2022-12-14T19:52:52.569Z,67.20
2022-12-14T19:55:20.458Z,67.47
2022-12-14T19:57:48.323Z,67.42
2022-12-14T20:00:18.047Z,67.23
2022-12-14T20:02:46.019Z,67.16
2022-12-14T20:05:18.516Z,67.12
2022-12-14T20:07:46.764Z,67.35
2022-12-14T20:10:14.697Z,67.59
2022-12-14T20:12:42.520Z,67.51
2022-12-14T20:15:10.809Z,67.41
2022-12-14T20:17:39.963Z,67.48
2022-12-14T20:20:08.999Z,67.91
2022-12-14T20:23:17.373Z,67.75
2022-12-14T20:25:52.378Z,67.75
2022-12-14T20:28:20.278Z,67.67
2022-12-14T20:30:49.650Z,67.70
2022-12-14T20:33:19.223Z,68.10
2022-12-14T20:35:52.713Z,68.46
2022-12-14T20:38:21.135Z,68.66
2022-12-14T20:40:49.674Z,68.31
2022-12-14T20:43:17.981Z,68.46
2022-12-14T20:45:46.164Z,68.48
2022-12-14T20:48:14.742Z,68.88
2022-12-14T20:50:51.070Z,68.86
2022-12-14T20:53:21.091Z,68.63
2022-12-14T20:55:49.183Z,68.21
2022-12-14T20:58:17.545Z,68.40
2022-12-14T21:00:48.173Z,68.16
2022-12-14T21:40:45.320Z,68.16
2022-12-14T21:43:17.601Z,68.05
2022-12-14T21:45:54.617Z,68.25
2022-12-14T21:48:35.911Z,68.42
2022-12-14T21:52:09.177Z,68.11
2022-12-14T21:58:39.771Z,67.93
2022-12-14T22:02:33.334Z,68.03
2022-12-14T22:05:12.370Z,68.33
2022-12-14T22:11:00.422Z,68.46
2022-12-14T22:15:16.047Z,68.87
2022-12-14T22:21:24.922Z,68.63
2022-12-14T22:24:37.417Z,68.76
2022-12-14T22:27:38.487Z,68.92
2022-12-14T22:30:27.136Z,69.11
2022-12-14T22:33:03.244Z,69.19
2022-12-14T22:35:40.608Z,69.11
2022-12-14T22:38:13.826Z,69.78
2022-12-14T22:40:58.724Z,69.96
2022-12-14T22:43:49.343Z,69.87
2022-12-14T22:46:36.155Z,70.03
2022-12-14T22:52:49.698Z,69.54
2022-12-14T22:55:27.299Z,69.81
2022-12-14T22:58:22.170Z,70.64
2022-12-14T23:01:22.256Z,70.76
2022-12-14T23:04:16.405Z,70.28
2022-12-14T23:07:01.848Z,70.03
2022-12-14T23:09:58.485Z,69.88
2022-12-14T23:13:11.436Z,69.46
2022-12-14T23:16:10.984Z,69.19
2022-12-14T23:20:17.604Z,69.29
2022-12-14T23:23:16.155Z,69.76
2022-12-14T23:26:19.037Z,69.66
2022-12-14T23:29:18.346Z,69.65
2022-12-14T23:32:11.270Z,69.70
2022-12-14T23:35:31.424Z,69.77
2022-12-14T23:39:02.054Z,69.63
2022-12-14T23:42:30.791Z,69.52
2022-12-14T23:46:13.567Z,69.32
2022-12-14T23:49:37.102Z,69.44
2022-12-14T23:53:29.564Z,69.15
